createdAt,value
2019-01-20T00:01:33.325Z,42.93
2019-01-20T00:04:02.888Z,32.80
2019-01-20T00:06:32.476Z,40.60
2019-01-20T00:09:02.101Z,41.65
2019-01-20T00:11:33.303Z,35.10
2019-01-20T00:14:02.910Z,39.45
2019-01-20T00:16:32.551Z,39.65
2019-01-20T00:19:01.948Z,36.25
2019-01-20T00:21:31.288Z,35.38
2019-01-20T00:24:00.632Z,32.78
2019-01-20T00:26:29.978Z,30.57
2019-01-20T00:28:59.537Z,35.68
2019-01-20T00:31:29.198Z,37.30
2019-01-20T00:33:58.837Z,38.85
2019-01-20T00:36:28.485Z,38.55
2019-01-20T00:38:58.117Z,32.93
2019-01-20T00:41:27.495Z,33.50
2019-01-20T00:43:56.834Z,37.38
2019-01-20T00:46:26.253Z,39.55
2019-01-20T00:48:55.894Z,35.73
2019-01-20T00:51:25.948Z,36.73
2019-01-20T00:53:55.565Z,28.30
2019-01-20T00:56:24.909Z,37.30
2019-01-20T00:58:54.364Z,36.83
2019-01-20T01:01:23.810Z,30.82
2019-01-20T01:03:53.468Z,37.63
2019-01-20T01:06:23.078Z,31.52
2019-01-20T01:08:52.733Z,35.73
2019-01-20T01:11:22.363Z,33.33
2019-01-20T01:13:52.029Z,35.78
2019-01-20T01:16:21.670Z,38.85
2019-01-20T01:18:51.291Z,32.98
2019-01-20T01:21:20.612Z,35.90
2019-01-20T01:23:50.047Z,36.05
2019-01-20T01:26:19.690Z,33.33
2019-01-20T01:28:49.311Z,36.17
2019-01-20T01:31:18.914Z,36.25
2019-01-20T01:33:48.555Z,30.25
2019-01-20T01:36:18.162Z,36.63
2019-01-20T01:38:47.826Z,38.35
2019-01-20T01:41:17.446Z,36.63
2019-01-20T01:43:47.087Z,37.95
2019-01-20T01:46:16.699Z,30.95
2019-01-20T01:48:46.346Z,32.42
2019-01-20T01:51:15.965Z,34.13
2019-01-20T01:53:45.606Z,39.92
2019-01-20T01:56:15.234Z,37.40
2019-01-20T01:58:44.887Z,32.10
2019-01-20T02:01:14.511Z,38.70
2019-01-20T02:03:44.174Z,36.93
2019-01-20T02:06:13.809Z,41.70
2019-01-20T02:08:43.415Z,36.65
2019-01-20T02:11:13.059Z,39.00
2019-01-20T02:13:42.710Z,38.17
2019-01-20T02:16:12.313Z,36.98
2019-01-20T02:18:41.956Z,38.92
2019-01-20T02:21:11.566Z,38.65
2019-01-20T02:23:41.221Z,35.43
2019-01-20T02:26:10.839Z,39.80
2019-01-20T02:28:40.502Z,35.65
2019-01-20T02:31:10.156Z,40.48
2019-01-20T02:33:39.768Z,37.63
2019-01-20T02:36:09.397Z,36.90
2019-01-20T02:38:39.072Z,41.05
2019-01-20T02:41:08.670Z,30.90
2019-01-20T02:43:38.302Z,35.38
2019-01-20T02:46:07.956Z,38.28
2019-01-20T02:48:37.583Z,40.28
2019-01-20T02:51:07.245Z,38.58
2019-01-20T02:53:36.823Z,32.58
2019-01-20T02:56:07.231Z,33.05
2019-01-20T02:58:36.551Z,38.00
2019-01-20T03:01:06.218Z,35.45
2019-01-20T03:03:35.704Z,34.95
2019-01-20T03:06:05.222Z,33.02
2019-01-20T03:08:34.834Z,37.15
2019-01-20T03:11:04.501Z,31.65
2019-01-20T03:13:34.146Z,34.13
2019-01-20T03:16:04.002Z,29.45
2019-01-20T03:18:35.198Z,29.37
2019-01-20T03:21:04.824Z,30.75
2019-01-20T03:23:34.498Z,35.35
2019-01-20T03:26:04.118Z,31.25
2019-01-20T03:28:33.746Z,37.13
2019-01-20T03:31:03.065Z,32.38
2019-01-20T03:33:32.656Z,35.43
2019-01-20T03:36:02.309Z,35.68
2019-01-20T03:38:31.632Z,35.13
2019-01-20T03:41:01.287Z,37.73
2019-01-20T03:43:30.946Z,33.13
2019-01-20T03:46:00.657Z,31.93
2019-01-20T03:48:30.311Z,29.70
2019-01-20T03:50:59.942Z,36.40
2019-01-20T03:53:29.477Z,32.17
2019-01-20T03:55:59.078Z,37.93
2019-01-20T03:58:28.665Z,30.90
2019-01-20T04:00:58.307Z,28.12
2019-01-20T04:03:27.712Z,35.63
2019-01-20T04:05:57.359Z,31.50
2019-01-20T04:08:26.966Z,29.70
2019-01-20T04:10:56.571Z,28.70
2019-01-20T04:13:26.226Z,31.20
2019-01-20T04:15:55.854Z,33.13
2019-01-20T04:18:25.502Z,29.02
2019-01-20T04:20:55.112Z,31.30
2019-01-20T04:23:24.776Z,30.12
2019-01-20T04:25:54.398Z,31.15
2019-01-20T04:28:24.057Z,30.52
2019-01-20T04:30:53.413Z,31.07
2019-01-20T04:33:23.060Z,32.20
2019-01-20T04:35:52.415Z,28.32
2019-01-20T04:38:21.839Z,30.45
2019-01-20T04:40:51.372Z,33.42
2019-01-20T04:43:21.022Z,31.12
2019-01-20T04:45:50.618Z,33.10
2019-01-20T04:48:20.287Z,35.40
2019-01-20T04:50:49.900Z,28.17
2019-01-20T04:53:19.527Z,37.53
2019-01-20T04:55:49.117Z,31.00
2019-01-20T04:58:18.987Z,36.60
2019-01-20T05:00:48.660Z,38.75
2019-01-20T05:03:18.267Z,37.67
2019-01-20T05:05:47.579Z,37.67
2019-01-20T05:08:17.027Z,36.88
2019-01-20T05:10:46.695Z,36.35
2019-01-20T05:13:16.334Z,36.10
2019-01-20T05:15:45.968Z,34.05
2019-01-20T05:18:15.598Z,40.28
2019-01-20T05:20:45.255Z,37.08
2019-01-20T05:23:14.859Z,38.50
2019-01-20T05:25:44.486Z,38.40
2019-01-20T05:28:14.130Z,42.13
2019-01-20T05:30:43.734Z,35.60
2019-01-20T05:33:13.393Z,32.28
2019-01-20T05:35:43.024Z,31.50
2019-01-20T05:38:12.671Z,35.48
2019-01-20T05:40:42.093Z,38.25
2019-01-20T05:43:11.434Z,35.23
2019-01-20T05:45:41.118Z,35.68
2019-01-20T05:48:10.769Z,34.33
2019-01-20T05:50:40.369Z,37.35
2019-01-20T05:53:09.847Z,33.50
2019-01-20T05:55:39.471Z,33.33
2019-01-20T05:58:09.137Z,32.75
2019-01-20T06:00:38.743Z,37.93
2019-01-20T06:03:08.398Z,35.28
2019-01-20T06:05:38.001Z,30.37
2019-01-20T06:08:07.665Z,34.92
2019-01-20T06:10:37.322Z,30.45
2019-01-20T06:13:06.926Z,34.70
2019-01-20T06:15:36.444Z,32.28
2019-01-20T06:18:06.290Z,34.35
2019-01-20T06:20:35.944Z,33.50
2019-01-20T06:23:05.558Z,40.10
2019-01-20T06:25:34.943Z,46.95
2019-01-20T06:28:04.247Z,41.35
2019-01-20T06:30:33.599Z,33.48
2019-01-20T06:33:02.887Z,38.40
2019-01-20T06:35:32.226Z,33.10
2019-01-20T06:38:02.603Z,32.58
2019-01-20T06:40:32.040Z,32.05
2019-01-20T06:43:02.434Z,30.52
2019-01-20T06:45:31.962Z,32.28
2019-01-20T06:48:01.305Z,30.55
2019-01-20T06:50:30.979Z,32.73
2019-01-20T06:53:00.490Z,34.80
2019-01-20T06:55:31.134Z,31.62
2019-01-20T06:58:00.793Z,31.90
2019-01-20T07:00:30.419Z,31.75
2019-01-20T07:02:59.734Z,33.95
2019-01-20T07:05:29.093Z,27.37
2019-01-20T07:07:58.486Z,36.53
2019-01-20T07:10:27.815Z,28.98
2019-01-20T07:12:57.157Z,35.20
2019-01-20T07:15:26.550Z,29.05
2019-01-20T07:17:56.221Z,36.10
2019-01-20T07:20:25.639Z,32.13
2019-01-20T07:22:55.126Z,33.92
2019-01-20T07:25:24.712Z,29.95
2019-01-20T07:27:54.270Z,31.33
2019-01-20T07:30:23.676Z,32.42
2019-01-20T07:32:53.160Z,28.83
2019-01-20T07:35:22.734Z,30.02
2019-01-20T07:37:52.394Z,30.20
2019-01-20T07:40:22.833Z,35.13
2019-01-20T07:42:52.266Z,40.38
2019-01-20T07:45:21.878Z,38.10
2019-01-20T07:47:51.479Z,196.80
2019-01-20T07:50:22.646Z,151.63
2019-01-20T07:52:51.982Z,114.85
2019-01-20T07:55:21.369Z,99.83
2019-01-20T07:57:50.770Z,65.52
2019-01-20T08:00:22.230Z,42.55
2019-01-20T08:02:51.873Z,45.03
2019-01-20T08:05:21.280Z,39.40
2019-01-20T08:07:50.669Z,39.27
2019-01-20T08:10:23.301Z,36.93
2019-01-20T08:12:52.912Z,45.63
2019-01-20T08:15:22.445Z,50.35
2019-01-20T08:17:52.092Z,51.92
2019-01-20T08:20:23.323Z,46.85
2019-01-20T08:22:52.648Z,42.17
2019-01-20T08:25:22.221Z,43.28
2019-01-20T08:27:51.543Z,46.83
2019-01-20T08:30:23.131Z,48.45
2019-01-20T08:32:52.689Z,41.90
2019-01-20T08:35:23.211Z,33.78
2019-01-20T08:37:52.558Z,29.67
2019-01-20T08:40:24.661Z,32.83
2019-01-20T08:42:53.995Z,24.45
2019-01-20T08:45:26.623Z,24.82
2019-01-20T08:47:58.926Z,26.02
2019-01-20T08:50:28.238Z,24.23
2019-01-20T08:52:57.570Z,25.10
2019-01-20T08:55:26.864Z,22.62
2019-01-20T08:57:57.991Z,24.00
2019-01-20T09:00:27.326Z,28.55
2019-01-20T09:02:56.651Z,31.55
2019-01-20T09:05:25.951Z,23.10
2019-01-20T09:07:55.255Z,29.10
2019-01-20T09:10:25.743Z,22.58
2019-01-20T09:12:55.794Z,21.87
2019-01-20T09:15:37.455Z,17.20
2019-01-20T09:18:06.932Z,17.60
2019-01-20T09:20:36.269Z,18.12
2019-01-20T09:23:05.581Z,15.78
2019-01-20T09:25:34.905Z,19.00
2019-01-20T09:28:04.306Z,19.70
2019-01-20T09:30:33.606Z,17.48
2019-01-20T09:33:02.940Z,18.60
2019-01-20T09:35:32.238Z,19.95
2019-01-20T09:38:01.569Z,21.00
2019-01-20T09:40:30.935Z,18.20
2019-01-20T09:43:00.270Z,22.37
2019-01-20T09:45:33.336Z,22.65
2019-01-20T09:48:02.699Z,20.45
2019-01-20T09:50:32.008Z,18.95
2019-01-20T09:53:01.383Z,21.97
2019-01-20T09:55:30.731Z,18.67
2019-01-20T09:58:00.023Z,18.37
2019-01-20T10:00:32.087Z,18.02
2019-01-20T10:03:01.421Z,20.77
2019-01-20T10:05:31.815Z,20.68
2019-01-20T10:08:01.110Z,18.95
2019-01-20T10:10:30.432Z,19.15
2019-01-20T10:12:59.714Z,18.02
2019-01-20T10:15:29.054Z,17.52
2019-01-20T10:17:58.362Z,18.62
2019-01-20T10:20:29.806Z,20.25
2019-01-20T10:22:59.122Z,16.55
2019-01-20T10:25:28.438Z,17.05
2019-01-20T10:27:57.777Z,18.67
2019-01-20T10:30:29.786Z,21.20
2019-01-20T10:32:59.121Z,20.70
2019-01-20T10:35:38.988Z,21.05
2019-01-20T10:38:09.506Z,21.45
2019-01-20T10:40:38.831Z,21.35
2019-01-20T10:43:08.187Z,16.15
2019-01-20T10:45:37.508Z,22.07
2019-01-20T10:48:07.260Z,18.67
2019-01-20T10:50:36.581Z,16.73
2019-01-20T10:53:05.906Z,19.92
2019-01-20T10:55:35.260Z,19.73
2019-01-20T10:58:04.732Z,21.17
2019-01-20T11:00:39.507Z,17.40
2019-01-20T11:03:08.837Z,17.87
2019-01-20T11:05:38.215Z,22.13
2019-01-20T11:08:07.502Z,19.82
2019-01-20T11:10:36.822Z,19.62
2019-01-20T11:13:06.141Z,19.48
2019-01-20T11:15:35.539Z,18.35
2019-01-20T11:18:04.842Z,20.97
2019-01-20T11:20:34.123Z,19.98
2019-01-20T11:23:03.464Z,21.82
2019-01-20T11:25:35.737Z,21.02
2019-01-20T11:28:06.017Z,22.15
2019-01-20T11:30:36.374Z,20.95
2019-01-20T11:33:05.760Z,19.90
2019-01-20T11:35:35.094Z,21.20
2019-01-20T11:38:04.606Z,20.65
2019-01-20T11:40:33.934Z,18.70
2019-01-20T11:43:03.222Z,22.32
2019-01-20T11:45:32.638Z,18.85
2019-01-20T11:48:02.044Z,20.77
2019-01-20T11:50:31.366Z,20.25
2019-01-20T11:53:00.672Z,17.67
2019-01-20T11:55:29.960Z,16.62
2019-01-20T11:57:59.305Z,19.07
2019-01-20T12:00:33.256Z,16.05
2019-01-20T12:03:02.630Z,16.10
2019-01-20T12:05:33.063Z,15.72
2019-01-20T12:08:02.403Z,14.25
2019-01-20T12:10:31.797Z,15.80
2019-01-20T12:13:05.688Z,19.60
2019-01-20T12:15:35.104Z,17.65
2019-01-20T12:18:04.648Z,22.27
2019-01-20T12:20:34.108Z,18.92
2019-01-20T12:23:03.608Z,20.50
2019-01-20T12:25:32.978Z,18.75
2019-01-20T12:28:02.298Z,19.32
2019-01-20T12:30:37.512Z,21.87
2019-01-20T12:33:06.978Z,22.25
2019-01-20T12:35:36.280Z,19.87
2019-01-20T12:38:05.590Z,22.35
2019-01-20T12:40:37.869Z,20.30
2019-01-20T12:43:07.148Z,18.73
2019-01-20T12:45:36.464Z,16.87
2019-01-20T12:48:07.430Z,18.82
2019-01-20T12:50:37.153Z,18.95
2019-01-20T12:53:06.925Z,20.88
2019-01-20T12:55:36.240Z,25.75
2019-01-20T12:58:05.659Z,20.80
2019-01-20T13:00:34.928Z,20.43
2019-01-20T13:03:04.522Z,21.42
2019-01-20T13:05:33.940Z,22.75
2019-01-20T13:08:05.092Z,21.20
2019-01-20T13:10:34.768Z,23.92
2019-01-20T13:13:04.178Z,21.70
2019-01-20T13:15:33.888Z,24.87
2019-01-20T13:18:03.254Z,22.05
2019-01-20T13:20:32.980Z,22.07
2019-01-20T13:23:02.493Z,23.20
2019-01-20T13:25:31.904Z,21.90
2019-01-20T13:28:01.290Z,26.12
2019-01-20T13:30:30.613Z,20.62
2019-01-20T13:32:59.892Z,23.95
2019-01-20T13:35:29.232Z,27.25
2019-01-20T13:38:04.458Z,25.02
2019-01-20T13:40:43.230Z,22.80
2019-01-20T13:43:12.515Z,23.22
2019-01-20T13:45:41.873Z,25.15
2019-01-20T13:48:12.660Z,25.25
2019-01-20T13:50:43.149Z,26.15
2019-01-20T13:53:14.051Z,24.30
2019-01-20T13:55:43.395Z,27.17
2019-01-20T13:58:12.714Z,24.43
2019-01-20T14:00:44.046Z,26.00
2019-01-20T14:03:13.029Z,24.45
2019-01-20T14:05:42.494Z,22.45
2019-01-20T14:08:11.876Z,26.33
2019-01-20T14:10:41.215Z,22.87
2019-01-20T14:13:10.591Z,25.62
2019-01-20T14:15:39.899Z,27.00
2019-01-20T14:18:09.215Z,28.52
2019-01-20T14:20:40.228Z,24.92
2019-01-20T14:23:09.563Z,23.92
2019-01-20T14:25:38.883Z,22.32
2019-01-20T14:28:08.270Z,20.00
2019-01-20T14:30:37.580Z,24.55
2019-01-20T14:33:06.919Z,21.48
2019-01-20T14:35:36.253Z,22.40
2019-01-20T14:38:05.589Z,17.07
2019-01-20T14:40:34.910Z,18.23
2019-01-20T14:43:04.253Z,17.45
2019-01-20T14:45:33.583Z,20.95
2019-01-20T14:48:02.980Z,18.55
2019-01-20T14:50:32.861Z,18.85
2019-01-20T14:53:02.329Z,18.05
2019-01-20T14:55:31.716Z,19.42
2019-01-20T14:58:01.006Z,19.02
2019-01-20T15:00:38.089Z,16.30
2019-01-20T15:03:07.758Z,18.20
2019-01-20T15:05:37.110Z,18.52
2019-01-20T15:08:06.491Z,19.87
2019-01-20T15:10:36.074Z,16.90
2019-01-20T15:13:05.515Z,22.40
2019-01-20T15:15:37.186Z,23.42
2019-01-20T15:18:06.935Z,21.35
2019-01-20T15:20:36.375Z,19.07
2019-01-20T15:23:05.917Z,23.92
2019-01-20T15:25:35.397Z,23.85
2019-01-20T15:28:04.953Z,25.68
2019-01-20T15:30:34.566Z,24.02
2019-01-20T15:33:05.168Z,21.68
2019-01-20T15:35:35.506Z,20.35
2019-01-20T15:38:05.305Z,19.65
2019-01-20T15:40:34.594Z,20.10
2019-01-20T15:43:03.934Z,19.90
2019-01-20T15:45:33.289Z,21.27
2019-01-20T15:48:02.609Z,32.08
2019-01-20T15:50:33.022Z,19.98
2019-01-20T15:53:02.511Z,25.00
2019-01-20T15:55:32.204Z,20.45
2019-01-20T15:58:01.922Z,19.23
2019-01-20T16:00:32.324Z,23.62
2019-01-20T16:03:02.819Z,19.50
2019-01-20T16:05:32.117Z,19.32
2019-01-20T16:08:01.481Z,18.92
2019-01-20T16:10:30.763Z,19.32
2019-01-20T16:13:00.083Z,19.02
2019-01-20T16:15:32.084Z,19.75
2019-01-20T16:18:01.378Z,17.98
2019-01-20T16:20:30.895Z,23.95
2019-01-20T16:23:00.207Z,21.27
2019-01-20T16:25:34.135Z,19.52
2019-01-20T16:28:03.736Z,24.07
2019-01-20T16:30:35.190Z,22.62
2019-01-20T16:33:04.832Z,25.82
2019-01-20T16:35:34.129Z,23.42
2019-01-20T16:38:03.702Z,21.60
2019-01-20T16:40:33.010Z,18.73
2019-01-20T16:43:03.418Z,19.92
2019-01-20T16:45:41.980Z,22.70
2019-01-20T16:48:07.623Z,24.72
2019-01-20T16:50:36.936Z,25.23
2019-01-20T16:53:06.277Z,19.65
2019-01-20T16:55:35.628Z,24.37
2019-01-20T16:58:04.940Z,22.65
2019-01-20T17:00:37.097Z,24.47
2019-01-20T17:03:06.428Z,22.30
2019-01-20T17:05:35.748Z,19.85
2019-01-20T17:08:06.153Z,31.15
2019-01-20T17:10:37.730Z,22.17
2019-01-20T17:13:07.796Z,28.12
2019-01-20T17:15:40.052Z,28.00
2019-01-20T17:18:11.422Z,35.38
2019-01-20T17:20:40.765Z,31.73
2019-01-20T17:23:10.090Z,32.95
2019-01-20T17:25:39.411Z,32.53
2019-01-20T17:28:08.753Z,29.50
2019-01-20T17:30:38.640Z,29.45
2019-01-20T17:33:09.681Z,30.08
2019-01-20T17:35:39.040Z,31.50
2019-01-20T17:38:08.492Z,33.83
2019-01-20T17:43:17.770Z,44.80
2019-01-20T17:45:49.832Z,36.58
2019-01-20T17:48:18.096Z,34.90
2019-01-20T17:50:47.403Z,35.00
2019-01-20T17:53:16.742Z,37.60
2019-01-20T17:55:46.257Z,32.90
2019-01-20T17:58:15.719Z,33.23
2019-01-20T18:00:49.705Z,31.33
2019-01-20T18:03:19.042Z,27.98
2019-01-20T18:05:49.438Z,23.73
2019-01-20T18:08:20.619Z,23.05
2019-01-20T18:10:49.921Z,24.00
2019-01-20T18:13:19.239Z,24.10
2019-01-20T18:15:54.345Z,26.55
2019-01-20T18:18:21.722Z,26.62
2019-01-20T18:20:51.087Z,26.30
2019-01-20T18:23:20.402Z,23.40
2019-01-20T18:25:49.731Z,24.75
2019-01-20T18:28:19.071Z,28.73
2019-01-20T18:30:48.412Z,29.12
2019-01-20T18:33:17.728Z,30.15
2019-01-20T18:35:47.016Z,26.93
2019-01-20T18:38:16.412Z,25.23
2019-01-20T18:40:46.299Z,27.25
2019-01-20T18:43:15.723Z,30.85
2019-01-20T18:45:45.109Z,25.45
2019-01-20T18:48:14.418Z,26.33
2019-01-20T18:50:44.596Z,24.52
2019-01-20T18:53:14.011Z,27.37
2019-01-20T18:55:43.519Z,25.27
2019-01-20T18:58:12.810Z,22.42
2019-01-20T19:00:49.983Z,23.77
2019-01-20T19:03:23.126Z,24.90
2019-01-20T19:05:56.516Z,25.75
2019-01-20T19:08:26.122Z,24.60
2019-01-20T19:11:00.253Z,28.23
2019-01-20T19:13:31.089Z,36.73
2019-01-20T19:16:00.437Z,36.33
2019-01-20T19:18:29.737Z,36.70
2019-01-20T19:20:59.073Z,36.88
2019-01-20T19:23:28.400Z,42.58
2019-01-20T19:25:57.689Z,43.83
2019-01-20T19:28:27.035Z,40.85
2019-01-20T19:30:56.351Z,37.90
2019-01-20T19:33:25.669Z,35.95
2019-01-20T19:35:54.958Z,39.13
2019-01-20T19:38:24.314Z,38.13
2019-01-20T19:40:53.609Z,37.03
2019-01-20T19:43:22.940Z,38.53
2019-01-20T19:45:52.345Z,38.40
2019-01-20T19:48:21.661Z,45.03
2019-01-20T19:50:51.002Z,41.58
2019-01-20T19:53:20.292Z,42.67
2019-01-20T19:55:49.611Z,43.60
2019-01-20T19:58:18.939Z,43.48
2019-01-20T20:00:48.248Z,45.23
2019-01-20T20:03:17.567Z,44.58
2019-01-20T20:05:46.949Z,45.20
2019-01-20T20:08:16.261Z,46.08
2019-01-20T20:10:46.746Z,44.00
2019-01-20T20:13:16.149Z,44.90
2019-01-20T20:15:45.454Z,46.63
2019-01-20T20:18:14.790Z,44.65
2019-01-20T20:20:44.079Z,48.42
2019-01-20T20:23:13.423Z,55.55
2019-01-20T20:25:42.726Z,48.98
2019-01-20T20:28:12.047Z,48.02
2019-01-20T20:30:41.344Z,47.05
2019-01-20T20:33:10.676Z,49.88
2019-01-20T20:35:39.995Z,46.60
2019-01-20T20:38:09.402Z,52.65
2019-01-20T20:40:38.684Z,45.30
2019-01-20T20:43:08.025Z,50.43
2019-01-20T20:45:37.339Z,51.13
2019-01-20T20:48:06.678Z,49.73
2019-01-20T20:50:36.039Z,47.08
2019-01-20T20:53:05.430Z,46.90
2019-01-20T20:55:34.747Z,52.35
2019-01-20T20:58:04.562Z,51.00
2019-01-20T21:00:36.835Z,49.75
2019-01-20T21:03:09.463Z,46.92
2019-01-20T21:05:39.759Z,46.15
2019-01-20T21:08:09.070Z,46.50
2019-01-20T21:10:38.403Z,45.23
2019-01-20T21:13:08.792Z,52.43
2019-01-20T21:15:38.121Z,44.93
2019-01-20T21:18:07.465Z,45.63
2019-01-20T21:20:36.762Z,47.03
2019-01-20T21:23:12.021Z,48.15
2019-01-20T21:25:37.024Z,43.78
2019-01-20T21:28:06.382Z,42.23
2019-01-20T21:30:35.670Z,41.28
2019-01-20T21:33:04.990Z,44.50
2019-01-20T21:35:34.306Z,41.45
2019-01-20T21:38:06.852Z,43.10
2019-01-20T21:40:35.686Z,42.70
2019-01-20T21:43:04.979Z,45.25
2019-01-20T21:45:34.300Z,46.95
2019-01-20T21:48:04.679Z,43.25
2019-01-20T21:50:34.035Z,45.60
2019-01-20T21:53:03.398Z,48.20
2019-01-20T21:55:32.710Z,45.70
2019-01-20T21:58:02.043Z,45.43
2019-01-20T22:00:31.348Z,39.65
2019-01-20T22:03:00.667Z,47.03
2019-01-20T22:05:29.984Z,41.18
2019-01-20T22:07:59.291Z,44.05
2019-01-20T22:10:28.629Z,38.10
2019-01-20T22:12:57.938Z,41.95
2019-01-20T22:15:27.272Z,39.58
2019-01-20T22:17:56.560Z,38.98
2019-01-20T22:20:25.896Z,42.60
2019-01-20T22:22:55.206Z,40.48
2019-01-20T22:25:24.536Z,40.63
2019-01-20T22:27:53.830Z,38.83
2019-01-20T22:30:24.900Z,36.15
2019-01-20T22:32:54.205Z,38.30
2019-01-20T22:35:23.537Z,35.45
2019-01-20T22:37:52.864Z,39.03
2019-01-20T22:40:22.154Z,46.85
2019-01-20T22:42:51.562Z,45.63
2019-01-20T22:45:25.294Z,53.35
2019-01-20T22:47:54.643Z,49.67
2019-01-20T22:50:23.964Z,47.90
2019-01-20T22:52:53.351Z,41.63
2019-01-20T22:55:22.634Z,48.90
2019-01-20T22:57:51.975Z,48.50
2019-01-20T23:00:29.290Z,53.08
2019-01-20T23:02:58.675Z,52.98
2019-01-20T23:05:27.963Z,57.40
2019-01-20T23:07:57.305Z,51.90
2019-01-20T23:10:26.614Z,45.78
2019-01-20T23:12:55.927Z,47.80
2019-01-20T23:15:25.247Z,61.13
2019-01-20T23:17:54.761Z,55.17
2019-01-20T23:20:24.054Z,54.65
2019-01-20T23:22:53.338Z,50.30
2019-01-20T23:25:22.693Z,53.98
2019-01-20T23:27:51.986Z,52.03
2019-01-20T23:30:21.323Z,53.35
2019-01-20T23:32:51.509Z,62.33
2019-01-20T23:35:20.849Z,59.18
2019-01-20T23:37:50.163Z,54.03
2019-01-20T23:40:19.456Z,55.92
2019-01-20T23:42:48.783Z,58.10
2019-01-20T23:45:18.094Z,56.48
2019-01-20T23:47:47.445Z,58.42
2019-01-20T23:50:18.356Z,51.37
2019-01-20T23:52:47.722Z,55.85
2019-01-20T23:55:17.010Z,49.53
2019-01-20T23:57:46.345Z,49.53
